sensor_id;sensor_type;location;lat;lon;timestamp;temperature;humidity
41756;DHT22;27435;48.480;9.258;2023-01-30T00:00:32;-2.80;99.00
41756;DHT22;27435;48.480;9.258;2023-01-30T00:02:58;-2.90;99.00
41756;DHT22;27435;48.480;9.258;2023-01-30T00:05:23;-2.90;99.00
41756;DHT22;27435;48.480;9.258;2023-01-30T00:07:49;-2.90;99.00
41756;DHT22;27435;48.480;9.258;2023-01-30T00:10:15;-3.00;99.00
41756;DHT22;27435;48.480;9.258;2023-01-30T00:12:40;-3.00;99.00
41756;DHT22;27435;48.480;9.258;2023-01-30T00:15:07;-2.90;99.00
41756;DHT22;27435;48.480;9.258;2023-01-30T00:17:33;-3.00;99.00
41756;DHT22;27435;48.480;9.258;2023-01-30T00:19:58;-2.90;99.00
41756;DHT22;27435;48.480;9.258;2023-01-30T00:22:24;-3.10;99.00
41756;DHT22;27435;48.480;9.258;2023-01-30T00:24:49;-3.10;99.00
41756;DHT22;27435;48.480;9.258;2023-01-30T00:27:15;-3.10;99.00
41756;DHT22;27435;48.480;9.258;2023-01-30T00:29:41;-2.90;99.00
41756;DHT22;27435;48.480;9.258;2023-01-30T00:32:07;-2.80;99.00
41756;DHT22;27435;48.480;9.258;2023-01-30T00:34:32;-2.70;99.00
41756;DHT22;27435;48.480;9.258;2023-01-30T00:36:58;-2.80;99.00
41756;DHT22;27435;48.480;9.258;2023-01-30T00:39:24;-2.90;99.00
41756;DHT22;27435;48.480;9.258;2023-01-30T00:41:50;-3.00;99.00
41756;DHT22;27435;48.480;9.258;2023-01-30T00:45:02;-3.00;99.00
41756;DHT22;27435;48.480;9.258;2023-01-30T00:47:47;-3.00;99.00
41756;DHT22;27435;48.480;9.258;2023-01-30T00:50:13;-2.90;99.00
41756;DHT22;27435;48.480;9.258;2023-01-30T00:52:39;-2.90;99.00
41756;DHT22;27435;48.480;9.258;2023-01-30T00:55:05;-2.80;99.00
41756;DHT22;27435;48.480;9.258;2023-01-30T00:57:30;-2.90;99.00
41756;DHT22;27435;48.480;9.258;2023-01-30T00:59:56;-2.90;99.00
41756;DHT22;27435;48.480;9.258;2023-01-30T01:02:22;-2.90;99.00
41756;DHT22;27435;48.480;9.258;2023-01-30T01:04:47;-3.10;99.00
41756;DHT22;27435;48.480;9.258;2023-01-30T01:07:13;-3.10;99.00
41756;DHT22;27435;48.480;9.258;2023-01-30T01:09:39;-3.20;99.00
41756;DHT22;27435;48.480;9.258;2023-01-30T01:12:06;-3.20;99.00
41756;DHT22;27435;48.480;9.258;2023-01-30T01:14:32;-3.30;99.00
41756;DHT22;27435;48.480;9.258;2023-01-30T01:16:58;-3.30;99.00
41756;DHT22;27435;48.480;9.258;2023-01-30T01:19:23;-3.30;99.00
41756;DHT22;27435;48.480;9.258;2023-01-30T01:21:49;-3.10;99.00
41756;DHT22;27435;48.480;9.258;2023-01-30T01:24:15;-3.00;99.00
41756;DHT22;27435;48.480;9.258;2023-01-30T01:26:41;-2.90;99.00
41756;DHT22;27435;48.480;9.258;2023-01-30T01:29:14;-3.00;99.00
41756;DHT22;27435;48.480;9.258;2023-01-30T01:31:41;-3.00;99.00
41756;DHT22;27435;48.480;9.258;2023-01-30T01:34:07;-3.10;99.00
41756;DHT22;27435;48.480;9.258;2023-01-30T01:36:33;-3.20;99.00
41756;DHT22;27435;48.480;9.258;2023-01-30T01:38:59;-3.20;99.00
41756;DHT22;27435;48.480;9.258;2023-01-30T01:41:25;-3.20;99.00
41756;DHT22;27435;48.480;9.258;2023-01-30T01:44:11;-3.40;99.00
41756;DHT22;27435;48.480;9.258;2023-01-30T01:46:49;-3.30;99.00
41756;DHT22;27435;48.480;9.258;2023-01-30T01:52:04;-3.20;99.00
41756;DHT22;27435;48.480;9.258;2023-01-30T01:54:58;-3.20;99.00
41756;DHT22;27435;48.480;9.258;2023-01-30T01:57:32;-3.30;99.00
41756;DHT22;27435;48.480;9.258;2023-01-30T02:00:06;-3.40;99.00
41756;DHT22;27435;48.480;9.258;2023-01-30T02:02:36;-3.40;99.00
41756;DHT22;27435;48.480;9.258;2023-01-30T02:05:03;-3.30;99.00
41756;DHT22;27435;48.480;9.258;2023-01-30T02:09:59;-3.30;99.00
41756;DHT22;27435;48.480;9.258;2023-01-30T02:12:25;-3.30;99.00
41756;DHT22;27435;48.480;9.258;2023-01-30T02:14:52;-3.30;99.00
41756;DHT22;27435;48.480;9.258;2023-01-30T02:17:19;-3.50;99.00
41756;DHT22;27435;48.480;9.258;2023-01-30T02:20:08;-3.40;99.00
41756;DHT22;27435;48.480;9.258;2023-01-30T02:26:04;-3.40;99.00
41756;DHT22;27435;48.480;9.258;2023-01-30T02:31:51;-3.50;99.00
41756;DHT22;27435;48.480;9.258;2023-01-30T02:34:36;-3.40;99.00
41756;DHT22;27435;48.480;9.258;2023-01-30T02:45:13;-2.90;99.00
41756;DHT22;27435;48.480;9.258;2023-01-30T02:47:44;-2.80;99.00
41756;DHT22;27435;48.480;9.258;2023-01-30T02:52:40;-2.80;99.00
41756;DHT22;27435;48.480;9.258;2023-01-30T02:55:21;-3.00;99.00
41756;DHT22;27435;48.480;9.258;2023-01-30T02:57:46;-3.00;99.00
41756;DHT22;27435;48.480;9.258;2023-01-30T03:00:14;-2.90;99.00
41756;DHT22;27435;48.480;9.258;2023-01-30T03:03:08;-2.80;99.00
41756;DHT22;27435;48.480;9.258;2023-01-30T03:05:59;-2.60;99.00
41756;DHT22;27435;48.480;9.258;2023-01-30T03:08:40;-2.40;99.00
41756;DHT22;27435;48.480;9.258;2023-01-30T03:11:08;-2.20;99.00
41756;DHT22;27435;48.480;9.258;2023-01-30T03:16:20;-2.20;99.00
41756;DHT22;27435;48.480;9.258;2023-01-30T03:18:47;-2.10;99.00
41756;DHT22;27435;48.480;9.258;2023-01-30T03:21:13;-2.20;99.00
41756;DHT22;27435;48.480;9.258;2023-01-30T03:23:44;-2.20;99.00
41756;DHT22;27435;48.480;9.258;2023-01-30T03:26:16;-2.40;99.00
41756;DHT22;27435;48.480;9.258;2023-01-30T03:28:43;-2.30;99.00
41756;DHT22;27435;48.480;9.258;2023-01-30T03:31:09;-2.30;99.00
41756;DHT22;27435;48.480;9.258;2023-01-30T03:33:34;-2.50;99.00
41756;DHT22;27435;48.480;9.258;2023-01-30T03:36:00;-2.70;99.00
41756;DHT22;27435;48.480;9.258;2023-01-30T03:38:26;-2.60;99.00
41756;DHT22;27435;48.480;9.258;2023-01-30T03:40:52;-2.60;99.00
41756;DHT22;27435;48.480;9.258;2023-01-30T03:43:18;-2.50;99.00
41756;DHT22;27435;48.480;9.258;2023-01-30T03:45:43;-2.50;99.00
41756;DHT22;27435;48.480;9.258;2023-01-30T03:48:09;-2.60;99.00
41756;DHT22;27435;48.480;9.258;2023-01-30T03:50:34;-2.60;99.00
41756;DHT22;27435;48.480;9.258;2023-01-30T03:53:00;-2.60;99.00
41756;DHT22;27435;48.480;9.258;2023-01-30T03:55:26;-2.50;99.00
41756;DHT22;27435;48.480;9.258;2023-01-30T03:57:55;-2.40;99.00
41756;DHT22;27435;48.480;9.258;2023-01-30T04:00:21;-2.40;99.00
41756;DHT22;27435;48.480;9.258;2023-01-30T04:02:47;-2.20;99.00
41756;DHT22;27435;48.480;9.258;2023-01-30T04:05:12;-2.10;99.00
41756;DHT22;27435;48.480;9.258;2023-01-30T04:07:38;-2.00;99.00
41756;DHT22;27435;48.480;9.258;2023-01-30T04:10:04;-1.90;99.00
41756;DHT22;27435;48.480;9.258;2023-01-30T04:12:30;-1.80;99.00
41756;DHT22;27435;48.480;9.258;2023-01-30T04:14:55;-1.70;99.00
41756;DHT22;27435;48.480;9.258;2023-01-30T04:17:21;-1.70;99.00
41756;DHT22;27435;48.480;9.258;2023-01-30T04:19:46;-1.70;99.00
41756;DHT22;27435;48.480;9.258;2023-01-30T04:22:12;-1.70;99.00
41756;DHT22;27435;48.480;9.258;2023-01-30T04:24:38;-1.60;99.00
41756;DHT22;27435;48.480;9.258;2023-01-30T04:27:03;-1.70;99.00
41756;DHT22;27435;48.480;9.258;2023-01-30T04:29:29;-1.80;99.00
41756;DHT22;27435;48.480;9.258;2023-01-30T04:31:54;-1.80;99.00
41756;DHT22;27435;48.480;9.258;2023-01-30T04:34:20;-1.80;99.00
41756;DHT22;27435;48.480;9.258;2023-01-30T04:36:46;-1.80;99.00
41756;DHT22;27435;48.480;9.258;2023-01-30T04:39:11;-1.70;99.00
41756;DHT22;27435;48.480;9.258;2023-01-30T04:41:37;-1.80;99.00
41756;DHT22;27435;48.480;9.258;2023-01-30T04:44:02;-1.80;99.00
41756;DHT22;27435;48.480;9.258;2023-01-30T04:46:28;-1.80;99.00
41756;DHT22;27435;48.480;9.258;2023-01-30T04:48:54;-1.80;99.00
41756;DHT22;27435;48.480;9.258;2023-01-30T04:51:19;-1.80;99.00
41756;DHT22;27435;48.480;9.258;2023-01-30T04:53:45;-1.80;99.00
41756;DHT22;27435;48.480;9.258;2023-01-30T04:56:10;-1.80;99.00
41756;DHT22;27435;48.480;9.258;2023-01-30T04:58:36;-1.70;99.00
41756;DHT22;27435;48.480;9.258;2023-01-30T05:01:32;-1.80;99.00
41756;DHT22;27435;48.480;9.258;2023-01-30T05:03:59;-1.80;99.00
41756;DHT22;27435;48.480;9.258;2023-01-30T05:06:25;-1.80;99.00
41756;DHT22;27435;48.480;9.258;2023-01-30T05:08:52;-1.80;99.00
41756;DHT22;27435;48.480;9.258;2023-01-30T05:11:19;-1.80;99.00
41756;DHT22;27435;48.480;9.258;2023-01-30T05:13:45;-1.80;99.00
41756;DHT22;27435;48.480;9.258;2023-01-30T05:16:11;-1.70;99.00
41756;DHT22;27435;48.480;9.258;2023-01-30T05:18:37;-1.60;99.00
41756;DHT22;27435;48.480;9.258;2023-01-30T05:21:07;-1.60;99.00
41756;DHT22;27435;48.480;9.258;2023-01-30T05:23:33;-1.50;99.00
41756;DHT22;27435;48.480;9.258;2023-01-30T05:26:00;-1.40;99.00
41756;DHT22;27435;48.480;9.258;2023-01-30T05:28:26;-1.40;99.00
41756;DHT22;27435;48.480;9.258;2023-01-30T05:30:53;-1.30;99.00
41756;DHT22;27435;48.480;9.258;2023-01-30T05:33:19;-1.30;99.00
41756;DHT22;27435;48.480;9.258;2023-01-30T05:35:48;-1.10;99.00
41756;DHT22;27435;48.480;9.258;2023-01-30T05:38:14;-1.10;99.00
41756;DHT22;27435;48.480;9.258;2023-01-30T05:40:40;-1.00;99.00
41756;DHT22;27435;48.480;9.258;2023-01-30T05:43:06;-0.90;99.00
41756;DHT22;27435;48.480;9.258;2023-01-30T05:45:31;-0.90;99.00
41756;DHT22;27435;48.480;9.258;2023-01-30T05:47:57;-0.90;99.00
41756;DHT22;27435;48.480;9.258;2023-01-30T05:50:23;-0.90;99.00
41756;DHT22;27435;48.480;9.258;2023-01-30T05:52:48;-0.90;99.00
41756;DHT22;27435;48.480;9.258;2023-01-30T05:55:14;-0.90;99.00
41756;DHT22;27435;48.480;9.258;2023-01-30T05:57:39;-0.90;99.00
41756;DHT22;27435;48.480;9.258;2023-01-30T06:00:06;-0.80;99.00
41756;DHT22;27435;48.480;9.258;2023-01-30T06:02:31;-0.80;99.00
41756;DHT22;27435;48.480;9.258;2023-01-30T06:04:57;-0.60;99.00
41756;DHT22;27435;48.480;9.258;2023-01-30T06:07:23;-0.60;97.90
41756;DHT22;27435;48.480;9.258;2023-01-30T06:09:48;-0.60;98.30
41756;DHT22;27435;48.480;9.258;2023-01-30T06:12:14;-0.60;98.00
41756;DHT22;27435;48.480;9.258;2023-01-30T06:14:39;-0.40;95.00
41756;DHT22;27435;48.480;9.258;2023-01-30T06:17:05;-0.30;94.00
41756;DHT22;27435;48.480;9.258;2023-01-30T06:19:31;-0.10;93.20
41756;DHT22;27435;48.480;9.258;2023-01-30T06:21:56;-0.10;92.30
41756;DHT22;27435;48.480;9.258;2023-01-30T06:24:24;0.00;92.30
41756;DHT22;27435;48.480;9.258;2023-01-30T06:26:50;0.10;91.80
41756;DHT22;27435;48.480;9.258;2023-01-30T06:29:16;0.10;91.00
41756;DHT22;27435;48.480;9.258;2023-01-30T06:31:41;0.10;91.00
41756;DHT22;27435;48.480;9.258;2023-01-30T06:34:07;0.20;90.10
41756;DHT22;27435;48.480;9.258;2023-01-30T06:36:33;0.10;90.50
41756;DHT22;27435;48.480;9.258;2023-01-30T06:38:59;0.30;89.30
41756;DHT22;27435;48.480;9.258;2023-01-30T06:41:24;0.40;89.70
41756;DHT22;27435;48.480;9.258;2023-01-30T06:43:50;0.40;89.90
41756;DHT22;27435;48.480;9.258;2023-01-30T06:46:15;0.30;90.70
41756;DHT22;27435;48.480;9.258;2023-01-30T06:48:41;0.40;90.90
41756;DHT22;27435;48.480;9.258;2023-01-30T06:51:07;0.40;90.70
41756;DHT22;27435;48.480;9.258;2023-01-30T06:53:32;0.40;91.70
41756;DHT22;27435;48.480;9.258;2023-01-30T06:56:00;0.50;91.10
41756;DHT22;27435;48.480;9.258;2023-01-30T06:58:25;0.50;92.10
41756;DHT22;27435;48.480;9.258;2023-01-30T07:00:51;0.50;92.40
41756;DHT22;27435;48.480;9.258;2023-01-30T07:03:17;0.70;91.10
41756;DHT22;27435;48.480;9.258;2023-01-30T07:05:45;0.90;91.60
41756;DHT22;27435;48.480;9.258;2023-01-30T07:08:12;1.00;91.10
41756;DHT22;27435;48.480;9.258;2023-01-30T07:10:38;1.00;91.10
41756;DHT22;27435;48.480;9.258;2023-01-30T07:13:03;0.90;91.70
41756;DHT22;27435;48.480;9.258;2023-01-30T07:15:30;1.00;92.00
41756;DHT22;27435;48.480;9.258;2023-01-30T07:17:56;1.00;92.00
41756;DHT22;27435;48.480;9.258;2023-01-30T07:20:21;1.00;92.40
41756;DHT22;27435;48.480;9.258;2023-01-30T07:22:54;1.20;93.10
41756;DHT22;27435;48.480;9.258;2023-01-30T07:25:30;1.30;94.10
41756;DHT22;27435;48.480;9.258;2023-01-30T07:28:00;1.30;94.50
41756;DHT22;27435;48.480;9.258;2023-01-30T07:30:27;1.40;94.90
41756;DHT22;27435;48.480;9.258;2023-01-30T07:32:55;1.50;94.80
41756;DHT22;27435;48.480;9.258;2023-01-30T07:35:23;1.40;94.80
41756;DHT22;27435;48.480;9.258;2023-01-30T07:37:49;1.60;95.10
41756;DHT22;27435;48.480;9.258;2023-01-30T07:40:17;1.70;94.70
41756;DHT22;27435;48.480;9.258;2023-01-30T07:42:43;1.80;94.10
41756;DHT22;27435;48.480;9.258;2023-01-30T07:45:19;1.80;93.20
41756;DHT22;27435;48.480;9.258;2023-01-30T07:47:44;1.70;93.60
41756;DHT22;27435;48.480;9.258;2023-01-30T07:50:10;1.70;93.00
41756;DHT22;27435;48.480;9.258;2023-01-30T07:52:36;1.70;93.00
41756;DHT22;27435;48.480;9.258;2023-01-30T07:55:01;1.80;92.90
41756;DHT22;27435;48.480;9.258;2023-01-30T07:57:27;1.90;92.80
41756;DHT22;27435;48.480;9.258;2023-01-30T07:59:53;2.00;91.70
41756;DHT22;27435;48.480;9.258;2023-01-30T08:02:19;2.00;90.20
41756;DHT22;27435;48.480;9.258;2023-01-30T08:04:45;1.80;91.20
41756;DHT22;27435;48.480;9.258;2023-01-30T08:07:10;1.80;91.80
41756;DHT22;27435;48.480;9.258;2023-01-30T08:09:36;1.90;91.80
41756;DHT22;27435;48.480;9.258;2023-01-30T08:12:01;2.20;91.50
41756;DHT22;27435;48.480;9.258;2023-01-30T08:14:28;2.20;91.50
41756;DHT22;27435;48.480;9.258;2023-01-30T08:16:55;2.30;91.80
41756;DHT22;27435;48.480;9.258;2023-01-30T08:19:21;2.40;91.40
41756;DHT22;27435;48.480;9.258;2023-01-30T08:21:47;2.40;91.90
41756;DHT22;27435;48.480;9.258;2023-01-30T08:24:12;2.40;92.90
41756;DHT22;27435;48.480;9.258;2023-01-30T08:26:38;2.50;93.60
41756;DHT22;27435;48.480;9.258;2023-01-30T08:29:03;2.40;94.20
41756;DHT22;27435;48.480;9.258;2023-01-30T08:31:29;2.30;95.40
41756;DHT22;27435;48.480;9.258;2023-01-30T08:33:55;2.30;96.20
41756;DHT22;27435;48.480;9.258;2023-01-30T08:36:20;2.40;97.00
41756;DHT22;27435;48.480;9.258;2023-01-30T08:38:46;2.40;97.10
41756;DHT22;27435;48.480;9.258;2023-01-30T08:41:11;2.40;97.20
41756;DHT22;27435;48.480;9.258;2023-01-30T08:43:37;2.50;96.90
41756;DHT22;27435;48.480;9.258;2023-01-30T08:46:03;2.60;97.50
41756;DHT22;27435;48.480;9.258;2023-01-30T08:48:29;2.70;97.30
41756;DHT22;27435;48.480;9.258;2023-01-30T08:50:55;2.70;97.20
41756;DHT22;27435;48.480;9.258;2023-01-30T08:53:21;2.60;97.30
41756;DHT22;27435;48.480;9.258;2023-01-30T08:55:53;2.50;97.60
41756;DHT22;27435;48.480;9.258;2023-01-30T08:58:20;2.60;97.50
41756;DHT22;27435;48.480;9.258;2023-01-30T09:00:46;2.50;97.00
41756;DHT22;27435;48.480;9.258;2023-01-30T09:03:16;2.50;97.10
41756;DHT22;27435;48.480;9.258;2023-01-30T09:05:42;2.60;96.60
41756;DHT22;27435;48.480;9.258;2023-01-30T09:08:08;2.50;96.60
41756;DHT22;27435;48.480;9.258;2023-01-30T09:10:34;2.60;96.40
41756;DHT22;27435;48.480;9.258;2023-01-30T09:13:00;2.70;96.30
41756;DHT22;27435;48.480;9.258;2023-01-30T09:15:26;2.80;95.80
41756;DHT22;27435;48.480;9.258;2023-01-30T09:17:51;2.80;95.70
41756;DHT22;27435;48.480;9.258;2023-01-30T09:20:17;2.70;96.10
41756;DHT22;27435;48.480;9.258;2023-01-30T09:22:45;2.60;95.90
41756;DHT22;27435;48.480;9.258;2023-01-30T09:25:10;2.60;96.00
41756;DHT22;27435;48.480;9.258;2023-01-30T09:27:36;2.80;96.20
41756;DHT22;27435;48.480;9.258;2023-01-30T09:30:03;2.70;96.00
41756;DHT22;27435;48.480;9.258;2023-01-30T09:32:29;2.70;96.30
41756;DHT22;27435;48.480;9.258;2023-01-30T09:34:54;2.70;96.60
41756;DHT22;27435;48.480;9.258;2023-01-30T09:37:20;2.80;96.30
41756;DHT22;27435;48.480;9.258;2023-01-30T09:39:46;2.80;96.10
41756;DHT22;27435;48.480;9.258;2023-01-30T09:47:29;3.00;95.20
41756;DHT22;27435;48.480;9.258;2023-01-30T09:53:14;3.50;93.30
41756;DHT22;27435;48.480;9.258;2023-01-30T09:55:42;3.40;93.50
41756;DHT22;27435;48.480;9.258;2023-01-30T09:58:53;3.60;93.40
41756;DHT22;27435;48.480;9.258;2023-01-30T10:01:29;3.80;91.50
41756;DHT22;27435;48.480;9.258;2023-01-30T10:04:23;3.80;92.00
41756;DHT22;27435;48.480;9.258;2023-01-30T10:12:33;3.70;92.60
41756;DHT22;27435;48.480;9.258;2023-01-30T10:15:19;3.80;92.10
41756;DHT22;27435;48.480;9.258;2023-01-30T10:20:29;3.70;92.30
41756;DHT22;27435;48.480;9.258;2023-01-30T10:25:47;4.10;91.60
41756;DHT22;27435;48.480;9.258;2023-01-30T10:28:51;4.00;91.80
41756;DHT22;27435;48.480;9.258;2023-01-30T10:31:15;3.90;92.20
41756;DHT22;27435;48.480;9.258;2023-01-30T10:36:53;4.20;91.50
41756;DHT22;27435;48.480;9.258;2023-01-30T10:39:33;3.90;91.80
41756;DHT22;27435;48.480;9.258;2023-01-30T10:42:08;3.90;92.40
41756;DHT22;27435;48.480;9.258;2023-01-30T10:44:37;4.10;92.50
41756;DHT22;27435;48.480;9.258;2023-01-30T10:49:56;3.90;92.50
41756;DHT22;27435;48.480;9.258;2023-01-30T10:58:27;4.60;91.90
41756;DHT22;27435;48.480;9.258;2023-01-30T11:01:02;4.30;91.90
41756;DHT22;27435;48.480;9.258;2023-01-30T11:03:37;4.30;92.80
41756;DHT22;27435;48.480;9.258;2023-01-30T11:06:05;4.30;93.40
41756;DHT22;27435;48.480;9.258;2023-01-30T11:08:33;4.20;93.90
41756;DHT22;27435;48.480;9.258;2023-01-30T11:11:00;4.20;94.30
41756;DHT22;27435;48.480;9.258;2023-01-30T11:13:30;4.30;93.90
41756;DHT22;27435;48.480;9.258;2023-01-30T11:16:07;4.10;94.80
41756;DHT22;27435;48.480;9.258;2023-01-30T11:18:47;4.10;95.00
41756;DHT22;27435;48.480;9.258;2023-01-30T11:21:23;4.20;95.10
41756;DHT22;27435;48.480;9.258;2023-01-30T11:23:49;4.20;95.40
41756;DHT22;27435;48.480;9.258;2023-01-30T11:26:34;4.40;94.60
41756;DHT22;27435;48.480;9.258;2023-01-30T11:31:53;4.30;94.60
41756;DHT22;27435;48.480;9.258;2023-01-30T11:34:20;4.30;94.70
41756;DHT22;27435;48.480;9.258;2023-01-30T11:36:47;4.30;94.70
41756;DHT22;27435;48.480;9.258;2023-01-30T11:41:56;4.40;94.30
41756;DHT22;27435;48.480;9.258;2023-01-30T11:44:31;4.40;94.40
41756;DHT22;27435;48.480;9.258;2023-01-30T11:47:08;4.40;94.80
41756;DHT22;27435;48.480;9.258;2023-01-30T11:49:40;4.40;94.80
41756;DHT22;27435;48.480;9.258;2023-01-30T11:52:07;4.70;94.10
41756;DHT22;27435;48.480;9.258;2023-01-30T11:54:36;4.80;93.60
41756;DHT22;27435;48.480;9.258;2023-01-30T11:57:05;5.00;92.60
41756;DHT22;27435;48.480;9.258;2023-01-30T11:59:44;4.80;93.40
41756;DHT22;27435;48.480;9.258;2023-01-30T12:02:22;5.00;93.10
41756;DHT22;27435;48.480;9.258;2023-01-30T12:04:51;5.10;92.20
41756;DHT22;27435;48.480;9.258;2023-01-30T12:07:23;4.80;93.00
41756;DHT22;27435;48.480;9.258;2023-01-30T12:09:50;4.90;93.00
41756;DHT22;27435;48.480;9.258;2023-01-30T12:15:04;5.10;92.60
41756;DHT22;27435;48.480;9.258;2023-01-30T12:28:30;4.40;94.70
41756;DHT22;27435;48.480;9.258;2023-01-30T12:31:12;4.40;95.10
41756;DHT22;27435;48.480;9.258;2023-01-30T12:33:40;4.40;95.60
41756;DHT22;27435;48.480;9.258;2023-01-30T12:36:15;4.40;96.00
41756;DHT22;27435;48.480;9.258;2023-01-30T12:44:51;4.50;96.80
41756;DHT22;27435;48.480;9.258;2023-01-30T12:58:36;4.20;97.10
41756;DHT22;27435;48.480;9.258;2023-01-30T13:01:27;4.20;97.70
41756;DHT22;27435;48.480;9.258;2023-01-30T13:06:44;3.90;99.00
41756;DHT22;27435;48.480;9.258;2023-01-30T13:12:12;3.80;99.00
41756;DHT22;27435;48.480;9.258;2023-01-30T13:15:02;3.70;99.00
41756;DHT22;27435;48.480;9.258;2023-01-30T13:18:38;3.70;99.00
41756;DHT22;27435;48.480;9.258;2023-01-30T13:21:13;3.60;99.00
41756;DHT22;27435;48.480;9.258;2023-01-30T13:24:01;3.60;99.00
41756;DHT22;27435;48.480;9.258;2023-01-30T13:26:32;3.60;99.00
41756;DHT22;27435;48.480;9.258;2023-01-30T13:31:49;3.70;99.00
41756;DHT22;27435;48.480;9.258;2023-01-30T13:37:02;3.70;99.00
41756;DHT22;27435;48.480;9.258;2023-01-30T13:39:36;3.70;99.00
41756;DHT22;27435;48.480;9.258;2023-01-30T13:42:09;3.70;99.00
41756;DHT22;27435;48.480;9.258;2023-01-30T13:44:41;3.70;99.00
41756;DHT22;27435;48.480;9.258;2023-01-30T13:52:33;3.60;99.00
41756;DHT22;27435;48.480;9.258;2023-01-30T13:55:09;3.50;99.00
41756;DHT22;27435;48.480;9.258;2023-01-30T13:57:53;3.50;99.00
41756;DHT22;27435;48.480;9.258;2023-01-30T14:00:33;3.50;99.00
41756;DHT22;27435;48.480;9.258;2023-01-30T14:08:20;3.60;99.00
41756;DHT22;27435;48.480;9.258;2023-01-30T14:10:47;3.60;99.00
41756;DHT22;27435;48.480;9.258;2023-01-30T14:13:15;3.50;99.00
41756;DHT22;27435;48.480;9.258;2023-01-30T14:15:54;3.50;99.00
41756;DHT22;27435;48.480;9.258;2023-01-30T14:18:43;3.70;99.00
41756;DHT22;27435;48.480;9.258;2023-01-30T14:21:13;3.70;99.00
41756;DHT22;27435;48.480;9.258;2023-01-30T14:23:52;3.60;99.00
41756;DHT22;27435;48.480;9.258;2023-01-30T14:32:34;3.40;99.00
41756;DHT22;27435;48.480;9.258;2023-01-30T14:39:53;3.00;99.00
41756;DHT22;27435;48.480;9.258;2023-01-30T14:42:25;2.90;99.00
41756;DHT22;27435;48.480;9.258;2023-01-30T14:47:28;2.70;99.00
41756;DHT22;27435;48.480;9.258;2023-01-30T14:49:54;2.80;99.00
41756;DHT22;27435;48.480;9.258;2023-01-30T14:52:40;2.80;99.00
41756;DHT22;27435;48.480;9.258;2023-01-30T14:55:16;2.70;99.00
41756;DHT22;27435;48.480;9.258;2023-01-30T14:57:59;2.70;99.00
41756;DHT22;27435;48.480;9.258;2023-01-30T15:00:28;2.80;99.00
41756;DHT22;27435;48.480;9.258;2023-01-30T15:02:59;2.70;99.00
41756;DHT22;27435;48.480;9.258;2023-01-30T15:05:36;2.70;99.00
41756;DHT22;27435;48.480;9.258;2023-01-30T15:08:16;2.70;99.00
41756;DHT22;27435;48.480;9.258;2023-01-30T15:13:37;2.70;99.00
41756;DHT22;27435;48.480;9.258;2023-01-30T15:16:46;2.80;99.00
41756;DHT22;27435;48.480;9.258;2023-01-30T15:22:41;2.60;99.00
41756;DHT22;27435;48.480;9.258;2023-01-30T15:30:43;2.60;99.00
41756;DHT22;27435;48.480;9.258;2023-01-30T15:33:21;2.70;99.00
41756;DHT22;27435;48.480;9.258;2023-01-30T15:35:47;2.60;99.00
41756;DHT22;27435;48.480;9.258;2023-01-30T15:38:29;2.60;99.00
41756;DHT22;27435;48.480;9.258;2023-01-30T15:41:00;2.70;99.00
41756;DHT22;27435;48.480;9.258;2023-01-30T15:51:50;2.50;99.00
41756;DHT22;27435;48.480;9.258;2023-01-30T15:54:18;2.40;99.00
41756;DHT22;27435;48.480;9.258;2023-01-30T15:56:47;2.40;99.00
41756;DHT22;27435;48.480;9.258;2023-01-30T15:59:36;2.40;99.00
41756;DHT22;27435;48.480;9.258;2023-01-30T16:02:17;2.40;99.00
41756;DHT22;27435;48.480;9.258;2023-01-30T16:04:45;2.40;99.00
41756;DHT22;27435;48.480;9.258;2023-01-30T16:07:23;2.40;99.00
41756;DHT22;27435;48.480;9.258;2023-01-30T16:09:56;2.50;99.00
41756;DHT22;27435;48.480;9.258;2023-01-30T16:12:27;2.50;99.00
41756;DHT22;27435;48.480;9.258;2023-01-30T16:14:53;2.50;99.00
41756;DHT22;27435;48.480;9.258;2023-01-30T16:17:29;2.50;99.00
41756;DHT22;27435;48.480;9.258;2023-01-30T16:19:58;2.50;99.00
41756;DHT22;27435;48.480;9.258;2023-01-30T16:22:28;2.60;99.00
41756;DHT22;27435;48.480;9.258;2023-01-30T16:24:54;2.60;99.00
41756;DHT22;27435;48.480;9.258;2023-01-30T16:27:38;2.60;99.00
41756;DHT22;27435;48.480;9.258;2023-01-30T16:30:07;2.60;99.00
41756;DHT22;27435;48.480;9.258;2023-01-30T16:32:34;2.50;99.00
41756;DHT22;27435;48.480;9.258;2023-01-30T16:37:42;2.60;99.00
41756;DHT22;27435;48.480;9.258;2023-01-30T16:40:16;2.50;99.00
41756;DHT22;27435;48.480;9.258;2023-01-30T16:43:19;2.50;99.00
41756;DHT22;27435;48.480;9.258;2023-01-30T16:46:44;2.60;99.00
41756;DHT22;27435;48.480;9.258;2023-01-30T16:52:46;2.60;99.00
41756;DHT22;27435;48.480;9.258;2023-01-30T16:55:21;2.60;99.00
41756;DHT22;27435;48.480;9.258;2023-01-30T16:57:59;2.50;99.00
41756;DHT22;27435;48.480;9.258;2023-01-30T17:00:38;2.50;99.00
41756;DHT22;27435;48.480;9.258;2023-01-30T17:03:23;2.50;99.00
41756;DHT22;27435;48.480;9.258;2023-01-30T17:05:51;2.50;99.00
41756;DHT22;27435;48.480;9.258;2023-01-30T17:08:55;2.50;99.00
41756;DHT22;27435;48.480;9.258;2023-01-30T17:16:38;2.60;99.00
41756;DHT22;27435;48.480;9.258;2023-01-30T17:19:05;2.60;99.00
41756;DHT22;27435;48.480;9.258;2023-01-30T17:21:41;2.60;99.00
41756;DHT22;27435;48.480;9.258;2023-01-30T17:24:15;2.60;99.00
41756;DHT22;27435;48.480;9.258;2023-01-30T17:26:41;2.60;99.00
41756;DHT22;27435;48.480;9.258;2023-01-30T17:29:12;2.60;99.00
41756;DHT22;27435;48.480;9.258;2023-01-30T17:31:44;2.50;99.00
41756;DHT22;27435;48.480;9.258;2023-01-30T17:34:10;2.60;99.00
41756;DHT22;27435;48.480;9.258;2023-01-30T17:36:37;2.60;99.00
41756;DHT22;27435;48.480;9.258;2023-01-30T17:39:12;2.60;99.00
41756;DHT22;27435;48.480;9.258;2023-01-30T17:41:39;2.60;99.00
41756;DHT22;27435;48.480;9.258;2023-01-30T17:44:05;2.60;99.00
41756;DHT22;27435;48.480;9.258;2023-01-30T17:46:45;2.60;99.00
41756;DHT22;27435;48.480;9.258;2023-01-30T17:49:16;2.50;99.00
41756;DHT22;27435;48.480;9.258;2023-01-30T17:51:42;2.50;99.00
41756;DHT22;27435;48.480;9.258;2023-01-30T17:54:10;2.50;99.00
41756;DHT22;27435;48.480;9.258;2023-01-30T17:56:37;2.50;99.00
41756;DHT22;27435;48.480;9.258;2023-01-30T17:59:04;2.50;99.00
41756;DHT22;27435;48.480;9.258;2023-01-30T18:01:30;2.40;99.00
41756;DHT22;27435;48.480;9.258;2023-01-30T18:03:56;2.40;99.00
41756;DHT22;27435;48.480;9.258;2023-01-30T18:06:22;2.50;99.00
41756;DHT22;27435;48.480;9.258;2023-01-30T18:08:47;2.50;99.00
41756;DHT22;27435;48.480;9.258;2023-01-30T18:11:13;2.50;99.00
41756;DHT22;27435;48.480;9.258;2023-01-30T18:13:40;2.50;99.00
41756;DHT22;27435;48.480;9.258;2023-01-30T18:16:20;2.50;99.00
41756;DHT22;27435;48.480;9.258;2023-01-30T18:18:47;2.50;99.00
41756;DHT22;27435;48.480;9.258;2023-01-30T18:21:14;2.50;99.00
41756;DHT22;27435;48.480;9.258;2023-01-30T18:23:40;2.50;99.00
41756;DHT22;27435;48.480;9.258;2023-01-30T18:26:08;2.60;99.00
41756;DHT22;27435;48.480;9.258;2023-01-30T18:28:33;2.60;99.00
41756;DHT22;27435;48.480;9.258;2023-01-30T18:30:59;2.60;99.00
41756;DHT22;27435;48.480;9.258;2023-01-30T18:33:25;2.60;99.00
41756;DHT22;27435;48.480;9.258;2023-01-30T18:35:50;2.50;99.00
41756;DHT22;27435;48.480;9.258;2023-01-30T18:38:16;2.50;99.00